Seven Seas Voyager — C6SW3 — position and weather

sailwx.info

Track history (hours):
 
Tides and Currents Weather Stations Pressure Air Temp Water Temp Dewpoint Dewpoint Depression Visibility Wind Speed Wind Dir Waves Ship Positions

Seven Seas Voyager

Last reported at 2017-Sep-22 12:00 UTC. Time now 2017-Sep-22 17:06 UTC.
Position N 43°12' E 006°36'.

Length 205 m; draft 7 m.

Type: Ship. MMSI: 31151000.

Wind from 100 at 10 knots

Barometer 1022.1 mb
Air temperature 18.1 ° C
Visibility: greater than 5.4 NM
Dewpoint 16.5 ° C
Water temperature 17.1 ° C

Date/timePositionNaut miles runAvg speedWind from/ knotsBaromVisibWave heightAir tempDewpointWater temp
2017-Sep-22 12:00N 43°12' E 006°36'0 0.0 100 / 101022.1 5.4 18.116.517.1
2017-Sep-22 11:00N 43°12' E 006°36'0 0.0 100 / 101022.1 5.4 18.116.517.1
2017-Sep-22 10:00N 43°12' E 006°36'38 4.8 100 / 101022.1 5.4 18.116.517.1
2017-Sep-22 02:00N 43°25' E 007°26'2151.6
2017-Sep-22 02:00N 43°24' E 007°24'714.6 250 / 91021.1 5.4 19.117.619.1
2017-Sep-22 01:30N 43°27' E 007°33'1311.4
2017-Sep-22 00:22N 43°29' E 007°51'411.4
2017-Sep-22 00:00N 43°30' E 007°56'611.5
2017-Sep-21 23:30N 43°32' E 008°04'912.0
2017-Sep-21 22:45N 43°34' E 008°16'310.8
2017-Sep-21 22:30N 43°35' E 008°19'611.3
2017-Sep-21 22:00N 43°39' E 008°25'33718.3
2017-Sep-21 22:00N 43°36' E 008°24'817.2 210 / 51021.1 5.4 20.115.419.1
2017-Sep-21 21:31N 43°43' E 008°30'611.4
2017-Sep-21 21:00N 43°47' E 008°36'5430.5
2017-Sep-21 21:00N 43°42' E 008°36'1020.4 210 / 51021.1 5.4 20.115.419.1
2017-Sep-21 20:31N 43°51' E 008°41'611.5
2017-Sep-21 20:00N 43°55' E 008°47'4340.4
2017-Sep-21 20:00N 43°54' E 008°42'919.0 210 / 51021.1 5.4 20.115.419.1
2017-Sep-21 19:30N 43°59' E 008°53'611.7
2017-Sep-21 19:00N 44°04' E 008°58'611.6
2017-Sep-21 18:30N 44°07' E 009°04'611.7
2017-Sep-21 18:00N 44°12' E 009°10'611.7
2017-Sep-21 17:30N 44°16' E 009°15'3 2.8
2017-Sep-21 16:35N 44°18' E 009°14'0 0.2
2017-Sep-21 16:29N 44°18' E 009°14'0 0.0
2017-Sep-21 15:59N 44°18' E 009°14'0 0.0
2017-Sep-21 15:29N 44°18' E 009°14'0 0.0
2017-Sep-21 14:59N 44°18' E 009°14'0 0.0
2017-Sep-21 14:29N 44°18' E 009°14'0 0.0
2017-Sep-21 13:59N 44°18' E 009°14'0 0.0
2017-Sep-21 13:29N 44°18' E 009°14'0 0.0
2017-Sep-21 12:59N 44°18' E 009°14'0 0.0
2017-Sep-21 12:23N 44°18' E 009°14'0 0.0
2017-Sep-21 11:59N 44°18' E 009°14'0 0.0
2017-Sep-21 10:35N 44°18' E 009°14'0 0.0
2017-Sep-21 08:59N 44°18' E 009°14'0 0.0
2017-Sep-21 08:23N 44°18' E 009°14'0 0.0
2017-Sep-21 07:59N 44°18' E 009°14'0 0.0
2017-Sep-21 07:29N 44°18' E 009°14'0 0.0
2017-Sep-21 06:47N 44°18' E 009°14'0 0.0
2017-Sep-21 06:23N 44°18' E 009°14'0 0.0
2017-Sep-21 05:53N 44°18' E 009°14'0 0.0
2017-Sep-21 05:29N 44°18' E 009°14'1 2.3
2017-Sep-21 05:00N 44°17' E 009°15'510.2
2017-Sep-21 04:30N 44°12' E 009°16'5 9.6
2017-Sep-21 04:00N 44°08' E 009°18'5 9.2
2017-Sep-21 03:30N 44°03' E 009°19'5 9.2
2017-Sep-21 03:00N 43°59' E 009°19'5 9.2
2017-Sep-21 02:30N 43°54' E 009°20'5 9.8
2017-Sep-21 02:00N 43°49' E 009°21'510.0
2017-Sep-21 01:30N 43°44' E 009°22'5 9.3
2017-Sep-21 00:59N 43°42' E 009°27'5 9.9
2017-Sep-21 00:30N 43°41' E 009°34'5 9.5
2017-Sep-21 00:00N 43°39' E 009°40'5 9.5
2017-Sep-20 23:30N 43°37' E 009°46'5 9.4
2017-Sep-20 23:00N 43°35' E 009°51'5 9.3
2017-Sep-20 22:27N 43°32' E 009°58'4 9.9
2017-Sep-20 22:00N 43°30' E 010°03'5 9.7
2017-Sep-20 21:30N 43°31' E 010°10'510.2
2017-Sep-20 21:00N 43°32' E 010°16'3397.5
2017-Sep-20 21:00N 43°30' E 010°18'3 5.0 270 / 81013.1 5.4 19.114.316.1
2017-Sep-20 20:26N 43°33' E 010°18'3 6.3
2017-Sep-20 20:00N 43°30' E 010°18'348.8 270 / 81013.1 5.4 19.114.316.1
2017-Sep-20 19:56N 43°33' E 010°18'0 0.0
2017-Sep-20 19:26N 43°33' E 010°18'0 0.0
2017-Sep-20 18:56N 43°33' E 010°18'0 0.0
2017-Sep-20 18:26N 43°33' E 010°18'0 0.0
2017-Sep-20 17:50N 43°33' E 010°18'0 0.0
2017-Sep-20 17:26N 43°33' E 010°18'0 0.0
2017-Sep-20 16:56N 43°33' E 010°18'0 0.0
2017-Sep-20 16:26N 43°33' E 010°18'0 0.0
2017-Sep-20 15:56N 43°33' E 010°18'0 0.0
2017-Sep-20 15:26N 43°33' E 010°18'0 0.0
2017-Sep-20 14:50N 43°33' E 010°18'0 0.0
2017-Sep-20 13:56N 43°33' E 010°18'0 0.0
2017-Sep-20 13:26N 43°33' E 010°18'0 0.0
2017-Sep-20 12:56N 43°33' E 010°18'0 0.0
2017-Sep-20 12:26N 43°33' E 010°18'0 0.0
2017-Sep-20 11:50N 43°33' E 010°18'0 0.0
2017-Sep-20 11:26N 43°33' E 010°18'0 0.0
2017-Sep-20 10:50N 43°33' E 010°18'0 0.0
2017-Sep-20 10:26N 43°33' E 010°18'0 0.0
2017-Sep-20 09:56N 43°33' E 010°18'0 0.0
2017-Sep-20 09:26N 43°33' E 010°18'0 0.0
2017-Sep-20 08:56N 43°33' E 010°18'0 0.0
2017-Sep-20 08:26N 43°33' E 010°18'0 0.0
2017-Sep-20 07:50N 43°33' E 010°18'0 0.0
2017-Sep-20 07:20N 43°33' E 010°18'0 0.0
2017-Sep-20 06:56N 43°33' E 010°18'0 0.0
2017-Sep-20 06:26N 43°33' E 010°18'0 0.0
2017-Sep-20 05:56N 43°33' E 010°18'0 0.0
2017-Sep-20 05:30N 43°33' E 010°18'1 2.5
2017-Sep-20 04:58N 43°32' E 010°16'4 9.4
2017-Sep-20 04:30N 43°28' E 010°13'612.7
2017-Sep-20 04:00N 43°22' E 010°11'712.1
2017-Sep-20 03:25N 43°15' E 010°09'512.0
2017-Sep-20 03:00N 43°10' E 010°08'612.0
2017-Sep-20 02:30N 43°04' E 010°07'2510.2
2017-Sep-20 00:05N 42°40' E 010°09'411.5
2017-Sep-19 23:42N 42°37' E 010°14'1411.6
2017-Sep-19 22:28N 42°29' E 010°30'510.3
2017-Sep-19 22:00N 42°24' E 010°30'461.4 300 / 201011.1 5.4 15.113.416.1
2017-Sep-19 21:56N 42°24' E 010°35'1314.2
2017-Sep-19 21:00N 42°12' E 010°42'7 7.5 300 / 201011.1 5.4 15.113.416.1
2017-Sep-19 20:00N 42°06' E 010°48'20 1.0 300 / 201011.1 5.4 15.113.416.1
2017-Sep-19 00:07N 42°24' E 010°35'216.1
2017-Sep-18 23:59N 42°26' E 010°34'916.0
2017-Sep-18 23:26N 42°32' E 010°25'816.2
2017-Sep-18 22:55N 42°36' E 010°15'1313.6
2017-Sep-18 22:00N 42°42' E 010°00'745.6 020 / 101013.1 5.4 16.114.516.1
2017-Sep-18 21:50N 42°49' E 010°02'617.2
2017-Sep-18 21:30N 42°55' E 010°04'918.4
2017-Sep-18 21:00N 43°04' E 010°04'5291.6
2017-Sep-18 21:00N 43°00' E 010°00'1224.3 020 / 101013.1 5.4 16.114.516.1
2017-Sep-18 20:30N 43°11' E 009°56'1019.0
2017-Sep-18 20:00N 43°19' E 009°48'4259.7
2017-Sep-18 20:00N 43°18' E 009°42'917.9 020 / 101013.1 5.4 16.114.516.1
2017-Sep-18 19:30N 43°27' E 009°40'918.6
2017-Sep-18 19:00N 43°35' E 009°34'918.3
2017-Sep-18 18:30N 43°43' E 009°28'917.8
2017-Sep-18 18:00N 43°50' E 009°22'917.5
2017-Sep-18 17:30N 43°58' E 009°15'917.6
2017-Sep-18 17:00N 44°06' E 009°09'917.7
2017-Sep-18 16:30N 44°13' E 009°03'816.9
2017-Sep-18 16:00N 44°21' E 008°58'4 8.7
2017-Sep-18 15:30N 44°25' E 008°55'0 0.0
2017-Sep-18 15:00N 44°25' E 008°55'0 0.0
2017-Sep-18 14:30N 44°25' E 008°55'0 0.0
2017-Sep-18 14:00N 44°25' E 008°55'0 0.0
2017-Sep-18 13:30N 44°25' E 008°55'0 0.0
2017-Sep-18 13:00N 44°25' E 008°55'0 0.0
2017-Sep-18 12:24N 44°25' E 008°55'0 0.0
2017-Sep-18 11:54N 44°25' E 008°55'0 0.0
2017-Sep-18 11:24N 44°25' E 008°55'0 0.0
2017-Sep-18 10:54N 44°25' E 008°55'0 0.0
2017-Sep-18 10:24N 44°25' E 008°55'0 0.0
2017-Sep-18 09:42N 44°25' E 008°55'0 0.0
2017-Sep-18 09:24N 44°25' E 008°55'0 0.0
2017-Sep-18 08:54N 44°25' E 008°55'0 0.0
2017-Sep-18 08:30N 44°25' E 008°55'0 0.0
2017-Sep-18 07:54N 44°25' E 008°55'0 0.0
2017-Sep-18 07:30N 44°25' E 008°55'0 0.0
2017-Sep-18 07:00N 44°25' E 008°55'0 0.0
2017-Sep-18 06:30N 44°25' E 008°55'0 0.0
2017-Sep-18 06:00N 44°25' E 008°55'0 0.6
2017-Sep-18 05:30N 44°24' E 008°55'3 5.2
2017-Sep-18 05:00N 44°22' E 008°58'3 6.9
2017-Sep-18 04:30N 44°19' E 008°59'4 8.8
2017-Sep-18 04:00N 44°15' E 008°56'4 8.3
2017-Sep-18 03:30N 44°11' E 008°54'4 8.2
2017-Sep-18 03:00N 44°08' E 008°52'4 8.1
2017-Sep-18 02:30N 44°04' E 008°49'4 8.1
2017-Sep-18 02:00N 44°00' E 008°47'3 5.8
2017-Sep-18 01:30N 44°01' E 008°51'4 8.0
2017-Sep-18 01:00N 44°04' E 008°54'4 7.9
2017-Sep-18 00:30N 44°07' E 008°58'4 7.9
2017-Sep-18 00:00N 44°10' E 009°02'4 7.6
2017-Sep-17 23:30N 44°12' E 009°06'4 8.0
2017-Sep-17 23:00N 44°10' E 009°11'4 7.9
2017-Sep-17 22:30N 44°08' E 009°16'4 8.0
2017-Sep-17 22:00N 44°06' E 009°20'4 8.3
2017-Sep-17 21:30N 44°04' E 009°25'4 7.7
2017-Sep-17 21:00N 44°00' E 009°27'2162.0
2017-Sep-17 21:00N 44°00' E 009°24'4 7.9 200 / 401014.1 5.4 19.114.317.1
2017-Sep-17 20:30N 43°56' E 009°26'4 7.5
2017-Sep-17 20:00N 43°53' E 009°24'5393.5
2017-Sep-17 20:00N 43°48' E 009°24'3 5.4 200 / 401014.1 5.4 19.114.317.1
2017-Sep-17 19:30N 43°49' E 009°27'4 8.7
2017-Sep-17 19:00N 43°48' E 009°33'5 9.7
2017-Sep-17 18:30N 43°51' E 009°38'5 9.8
2017-Sep-17 18:00N 43°54' E 009°43'5 9.9
2017-Sep-17 17:30N 43°58' E 009°48'510.1
2017-Sep-17 17:00N 44°02' E 009°52'5 9.7
2017-Sep-17 16:30N 44°06' E 009°50'0 0.4
2017-Sep-17 15:57N 44°06' E 009°50'0 0.0
2017-Sep-17 15:27N 44°06' E 009°50'0 0.0
2017-Sep-17 14:57N 44°06' E 009°50'0 0.0
2017-Sep-17 14:27N 44°06' E 009°50'0 0.0
2017-Sep-17 13:57N 44°06' E 009°50'0 0.0
2017-Sep-17 13:27N 44°06' E 009°50'0 0.0
2017-Sep-17 12:57N 44°06' E 009°50'0 0.0
2017-Sep-17 12:21N 44°06' E 009°50'0 0.0
2017-Sep-17 11:57N 44°06' E 009°50'0 0.0
2017-Sep-17 11:27N 44°06' E 009°50'0 0.0
2017-Sep-17 10:57N 44°06' E 009°50'0 0.0
2017-Sep-17 10:27N 44°06' E 009°50'0 0.0
2017-Sep-17 09:57N 44°06' E 009°50'0 0.0
2017-Sep-17 09:27N 44°06' E 009°50'0 0.0
2017-Sep-17 08:51N 44°06' E 009°50'0 0.0
2017-Sep-17 08:27N 44°06' E 009°50'0 0.0
2017-Sep-17 07:57N 44°06' E 009°50'0 0.0
2017-Sep-17 07:27N 44°06' E 009°50'0 0.0
2017-Sep-17 06:57N 44°06' E 009°50'0 0.0
2017-Sep-17 06:27N 44°06' E 009°50'0 0.0
2017-Sep-17 05:51N 44°06' E 009°50'0 0.0
2017-Sep-17 05:30N 44°06' E 009°50'1 2.6
2017-Sep-17 05:00N 44°05' E 009°50'510.3
2017-Sep-17 04:30N 44°01' E 009°55'5 9.9
2017-Sep-17 04:00N 43°57' E 009°53'612.3
2017-Sep-17 03:30N 43°52' E 009°47'612.1
2017-Sep-17 03:00N 43°47' E 009°42'612.4
2017-Sep-17 02:30N 43°43' E 009°36'612.5
2017-Sep-17 02:00N 43°38' E 009°30'713.2
2017-Sep-17 01:30N 43°33' E 009°24'713.3
2017-Sep-17 01:00N 43°28' E 009°18'713.3
2017-Sep-17 00:30N 43°23' E 009°13'713.2
2017-Sep-17 00:00N 43°18' E 009°07'3718.6
2017-Sep-16 22:00N 42°48' E 008°36'1110.7 270 / 201012.1 5.4 19.114.317.1
2017-Sep-16 21:00N 42°42' E 008°24'1514.9 270 / 201012.1 5.4 19.114.317.1
2017-Sep-16 20:00N 42°30' E 008°12'3015.0 270 / 201012.1 5.4 19.114.317.1
2017-Sep-16 18:00N 42°00' E 008°12'1515.0 220 / 221011.1 5.4 19.114.317.1
2017-Sep-16 17:00N 41°48' E 008°24'1514.7 120 / 191010.1 5.4 19.114.317.1
2017-Sep-16 16:00N 41°54' E 008°42'85 4.7 150 / 141010.1 5.4 18.114.917.1
2017-Sep-15 22:00N 43°06' E 007°42'1918.5 120 / 101010.1 5.4 18.114.917.1
2017-Sep-15 21:00N 43°24' E 007°36'527.0 120 / 101010.1 5.4 18.114.917.1
2017-Sep-15 20:49N 43°29' E 007°35'616.8
2017-Sep-15 20:27N 43°34' E 007°32'10 0.6
2017-Sep-15 03:41N 43°25' E 007°28'314.0
2017-Sep-15 03:30N 43°23' E 007°25'714.2
2017-Sep-15 03:00N 43°18' E 007°19'714.2
2017-Sep-15 02:30N 43°13' E 007°12'814.2
2017-Sep-15 01:56N 43°07' E 007°04'4812.3
2017-Sep-14 22:01N 42°50' E 006°03'114.3
2017-Sep-14 21:55N 42°51' E 006°01'614.4
2017-Sep-14 21:29N 42°53' E 005°53'714.4
2017-Sep-14 21:00N 42°56' E 005°44'816.3
2017-Sep-14 20:30N 42°59' E 005°33'714.8
2017-Sep-14 20:00N 43°01' E 005°24'714.6
2017-Sep-14 19:30N 43°05' E 005°15'714.8
2017-Sep-14 19:01N 43°11' E 005°10'714.8
2017-Sep-14 18:30N 43°17' E 005°15'5 9.7
2017-Sep-14 18:00N 43°21' E 005°20'3293.2
2017-Sep-14 18:00N 43°18' E 005°18'3 5.3 270 / 151018.1 5.4 18.118.121.1
2017-Sep-14 17:25N 43°21' E 005°20'3 7.1
2017-Sep-14 17:00N 43°18' E 005°18'341.4 270 / 151018.1 5.4 18.118.121.1
2017-Sep-14 16:55N 43°21' E 005°20'0 0.0
2017-Sep-14 16:19N 43°21' E 005°20'3 9.3
2017-Sep-14 16:00N 43°18' E 005°18'341.2 270 / 151018.1 5.4 18.118.121.1
2017-Sep-14 15:55N 43°21' E 005°20'0 0.0
2017-Sep-14 15:25N 43°21' E 005°20'0 0.0
2017-Sep-14 14:55N 43°21' E 005°20'0 0.0
2017-Sep-14 14:25N 43°21' E 005°20'0 0.0
2017-Sep-14 13:55N 43°21' E 005°20'0 0.0
2017-Sep-14 13:19N 43°21' E 005°20'0 0.0
2017-Sep-14 12:55N 43°21' E 005°20'0 0.0
2017-Sep-14 12:19N 43°21' E 005°20'0 0.0
2017-Sep-14 11:49N 43°21' E 005°20'0 0.0
2017-Sep-14 11:25N 43°21' E 005°20'0 0.0
2017-Sep-14 10:49N 43°21' E 005°20'0 0.0
2017-Sep-14 10:25N 43°21' E 005°20'0 0.0
2017-Sep-14 09:31N 43°21' E 005°20'0 0.0
2017-Sep-14 09:25N 43°21' E 005°20'0 0.0
2017-Sep-14 08:55N 43°21' E 005°20'0 0.0
2017-Sep-14 08:13N 43°21' E 005°20'0 0.0
2017-Sep-14 07:55N 43°21' E 005°20'0 0.0
2017-Sep-14 07:25N 43°21' E 005°20'0 0.0
2017-Sep-14 06:55N 43°21' E 005°20'0 0.0
2017-Sep-14 06:25N 43°21' E 005°20'0 0.0
2017-Sep-14 05:55N 43°21' E 005°20'0 0.3
2017-Sep-14 05:30N 43°21' E 005°20'3 6.7
2017-Sep-14 05:00N 43°19' E 005°16'611.6
2017-Sep-14 04:30N 43°15' E 005°10'611.3
2017-Sep-14 04:00N 43°10' E 005°08'611.9
2017-Sep-14 03:30N 43°06' E 005°03'611.8
2017-Sep-14 03:00N 43°01' E 004°57'611.7
2017-Sep-14 02:30N 42°57' E 004°52'612.0
2017-Sep-14 01:59N 42°53' E 004°45'612.3
2017-Sep-14 01:29N 42°49' E 004°39'612.0
2017-Sep-14 01:00N 42°45' E 004°34'612.4
2017-Sep-14 00:30N 42°40' E 004°28'612.4
2017-Sep-14 00:00N 42°36' E 004°22'612.2
2017-Sep-13 23:30N 42°32' E 004°16'612.1
2017-Sep-13 23:00N 42°27' E 004°10'612.1
2017-Sep-13 22:29N 42°23' E 004°04'918.0
2017-Sep-13 22:00N 42°18' E 003°54'1514.9 200 / 251019.1 5.4 20.117.021.1
2017-Sep-13 21:00N 42°06' E 003°42'318.1 200 / 251019.1 5.4 20.117.021.1
2017-Sep-13 20:49N 42°09' E 003°44'1012.5
2017-Sep-13 20:03N 42°02' E 003°35'112.5
2017-Sep-13 20:00N 42°01' E 003°35'81117.2
2017-Sep-13 20:00N 42°00' E 003°24'5 9.1 200 / 251019.1 5.4 20.117.021.1
2017-Sep-13 19:29N 41°57' E 003°28'713.8
2017-Sep-13 18:59N 41°52' E 003°22'613.2
2017-Sep-13 18:30N 41°49' E 003°13'28 1.7
2017-Sep-13 02:10N 41°24' E 002°56'2 8.8
2017-Sep-13 01:58N 41°23' E 002°54'6 8.3
2017-Sep-13 01:18N 41°20' E 002°48'2 8.0
2017-Sep-13 01:00N 41°19' E 002°45'4 7.9
2017-Sep-13 00:30N 41°17' E 002°41'4 7.7
2017-Sep-12 23:59N 41°16' E 002°36'4 7.9
2017-Sep-12 23:30N 41°16' E 002°31'4 7.9
2017-Sep-12 23:00N 41°16' E 002°26'4 7.8
2017-Sep-12 22:30N 41°16' E 002°20'5 8.2
2017-Sep-12 21:57N 41°15' E 002°14'4 8.7
2017-Sep-12 21:29N 41°18' E 002°10'4 1.2
2017-Sep-12 18:19N 41°22' E 002°11'  
Track history (hours):
 
Tides and Currents Weather Stations Pressure Air Temp Water Temp Dewpoint Dewpoint Depression Visibility Wind Speed Wind Dir Waves Ship Positions

Seven Seas Voyager

Last reported at 2017-Sep-22 12:00 UTC. Time now 2017-Sep-22 17:06 UTC.
Position N 43°12' E 006°36'.

Length 205 m; draft 7 m.

Type: Ship. MMSI: 31151000.

Wind from 100 at 10 knots

Barometer 1022.1 mb
Air temperature 18.1 ° C
Visibility: greater than 5.4 NM
Dewpoint 16.5 ° C
Water temperature 17.1 ° C

Date/timePositionNaut miles runAvg speedWind from/ knotsBaromVisibWave heightAir tempDewpointWater temp
2017-Sep-22 12:00N 43°12' E 006°36'0 0.0 100 / 101022.1 5.4 18.116.517.1
2017-Sep-22 11:00N 43°12' E 006°36'0 0.0 100 / 101022.1 5.4 18.116.517.1
2017-Sep-22 10:00N 43°12' E 006°36'38 4.8 100 / 101022.1 5.4 18.116.517.1
2017-Sep-22 02:00N 43°25' E 007°26'2151.6
2017-Sep-22 02:00N 43°24' E 007°24'714.6 250 / 91021.1 5.4 19.117.619.1
2017-Sep-22 01:30N 43°27' E 007°33'1311.4
2017-Sep-22 00:22N 43°29' E 007°51'411.4
2017-Sep-22 00:00N 43°30' E 007°56'611.5
2017-Sep-21 23:30N 43°32' E 008°04'912.0
2017-Sep-21 22:45N 43°34' E 008°16'310.8
2017-Sep-21 22:30N 43°35' E 008°19'611.3
2017-Sep-21 22:00N 43°39' E 008°25'33718.3
2017-Sep-21 22:00N 43°36' E 008°24'817.2 210 / 51021.1 5.4 20.115.419.1
2017-Sep-21 21:31N 43°43' E 008°30'611.4
2017-Sep-21 21:00N 43°47' E 008°36'5430.5
2017-Sep-21 21:00N 43°42' E 008°36'1020.4 210 / 51021.1 5.4 20.115.419.1
2017-Sep-21 20:31N 43°51' E 008°41'611.5
2017-Sep-21 20:00N 43°55' E 008°47'4340.4
2017-Sep-21 20:00N 43°54' E 008°42'919.0 210 / 51021.1 5.4 20.115.419.1
2017-Sep-21 19:30N 43°59' E 008°53'611.7
2017-Sep-21 19:00N 44°04' E 008°58'611.6
2017-Sep-21 18:30N 44°07' E 009°04'611.7
2017-Sep-21 18:00N 44°12' E 009°10'611.7
2017-Sep-21 17:30N 44°16' E 009°15'3 2.8
2017-Sep-21 16:35N 44°18' E 009°14'0 0.2
2017-Sep-21 16:29N 44°18' E 009°14'0 0.0
2017-Sep-21 15:59N 44°18' E 009°14'0 0.0
2017-Sep-21 15:29N 44°18' E 009°14'0 0.0
2017-Sep-21 14:59N 44°18' E 009°14'0 0.0
2017-Sep-21 14:29N 44°18' E 009°14'0 0.0
2017-Sep-21 13:59N 44°18' E 009°14'0 0.0
2017-Sep-21 13:29N 44°18' E 009°14'0 0.0
2017-Sep-21 12:59N 44°18' E 009°14'0 0.0
2017-Sep-21 12:23N 44°18' E 009°14'0 0.0
2017-Sep-21 11:59N 44°18' E 009°14'0 0.0
2017-Sep-21 10:35N 44°18' E 009°14'0 0.0
2017-Sep-21 08:59N 44°18' E 009°14'0 0.0
2017-Sep-21 08:23N 44°18' E 009°14'0 0.0
2017-Sep-21 07:59N 44°18' E 009°14'0 0.0
2017-Sep-21 07:29N 44°18' E 009°14'0 0.0
2017-Sep-21 06:47N 44°18' E 009°14'0 0.0
2017-Sep-21 06:23N 44°18' E 009°14'0 0.0
2017-Sep-21 05:53N 44°18' E 009°14'0 0.0
2017-Sep-21 05:29N 44°18' E 009°14'1 2.3
2017-Sep-21 05:00N 44°17' E 009°15'510.2
2017-Sep-21 04:30N 44°12' E 009°16'5 9.6
2017-Sep-21 04:00N 44°08' E 009°18'5 9.2
2017-Sep-21 03:30N 44°03' E 009°19'5 9.2
2017-Sep-21 03:00N 43°59' E 009°19'5 9.2
2017-Sep-21 02:30N 43°54' E 009°20'5 9.8
2017-Sep-21 02:00N 43°49' E 009°21'510.0
2017-Sep-21 01:30N 43°44' E 009°22'5 9.3
2017-Sep-21 00:59N 43°42' E 009°27'5 9.9
2017-Sep-21 00:30N 43°41' E 009°34'5 9.5
2017-Sep-21 00:00N 43°39' E 009°40'5 9.5
2017-Sep-20 23:30N 43°37' E 009°46'5 9.4
2017-Sep-20 23:00N 43°35' E 009°51'5 9.3
2017-Sep-20 22:27N 43°32' E 009°58'4 9.9
2017-Sep-20 22:00N 43°30' E 010°03'5 9.7
2017-Sep-20 21:30N 43°31' E 010°10'510.2
2017-Sep-20 21:00N 43°32' E 010°16'3397.5
2017-Sep-20 21:00N 43°30' E 010°18'3 5.0 270 / 81013.1 5.4 19.114.316.1
2017-Sep-20 20:26N 43°33' E 010°18'3 6.3
2017-Sep-20 20:00N 43°30' E 010°18'348.8 270 / 81013.1 5.4 19.114.316.1
2017-Sep-20 19:56N 43°33' E 010°18'0 0.0
2017-Sep-20 19:26N 43°33' E 010°18'0 0.0
2017-Sep-20 18:56N 43°33' E 010°18'0 0.0
2017-Sep-20 18:26N 43°33' E 010°18'0 0.0
2017-Sep-20 17:50N 43°33' E 010°18'0 0.0
2017-Sep-20 17:26N 43°33' E 010°18'0 0.0
2017-Sep-20 16:56N 43°33' E 010°18'0 0.0
2017-Sep-20 16:26N 43°33' E 010°18'0 0.0
2017-Sep-20 15:56N 43°33' E 010°18'0 0.0
2017-Sep-20 15:26N 43°33' E 010°18'0 0.0
2017-Sep-20 14:50N 43°33' E 010°18'0 0.0
2017-Sep-20 13:56N 43°33' E 010°18'0 0.0
2017-Sep-20 13:26N 43°33' E 010°18'0 0.0
2017-Sep-20 12:56N 43°33' E 010°18'0 0.0
2017-Sep-20 12:26N 43°33' E 010°18'0 0.0
2017-Sep-20 11:50N 43°33' E 010°18'0 0.0
2017-Sep-20 11:26N 43°33' E 010°18'0 0.0
2017-Sep-20 10:50N 43°33' E 010°18'0 0.0
2017-Sep-20 10:26N 43°33' E 010°18'0 0.0
2017-Sep-20 09:56N 43°33' E 010°18'0 0.0
2017-Sep-20 09:26N 43°33' E 010°18'0 0.0
2017-Sep-20 08:56N 43°33' E 010°18'0 0.0
2017-Sep-20 08:26N 43°33' E 010°18'0 0.0
2017-Sep-20 07:50N 43°33' E 010°18'0 0.0
2017-Sep-20 07:20N 43°33' E 010°18'0 0.0
2017-Sep-20 06:56N 43°33' E 010°18'0 0.0
2017-Sep-20 06:26N 43°33' E 010°18'0 0.0
2017-Sep-20 05:56N 43°33' E 010°18'0 0.0
2017-Sep-20 05:30N 43°33' E 010°18'1 2.5
2017-Sep-20 04:58N 43°32' E 010°16'4 9.4
2017-Sep-20 04:30N 43°28' E 010°13'612.7
2017-Sep-20 04:00N 43°22' E 010°11'712.1
2017-Sep-20 03:25N 43°15' E 010°09'512.0
2017-Sep-20 03:00N 43°10' E 010°08'612.0
2017-Sep-20 02:30N 43°04' E 010°07'2510.2
2017-Sep-20 00:05N 42°40' E 010°09'411.5
2017-Sep-19 23:42N 42°37' E 010°14'1411.6
2017-Sep-19 22:28N 42°29' E 010°30'510.3
2017-Sep-19 22:00N 42°24' E 010°30'461.4 300 / 201011.1 5.4 15.113.416.1
2017-Sep-19 21:56N 42°24' E 010°35'1314.2
2017-Sep-19 21:00N 42°12' E 010°42'7 7.5 300 / 201011.1 5.4 15.113.416.1
2017-Sep-19 20:00N 42°06' E 010°48'20 1.0 300 / 201011.1 5.4 15.113.416.1
2017-Sep-19 00:07N 42°24' E 010°35'216.1
2017-Sep-18 23:59N 42°26' E 010°34'916.0
2017-Sep-18 23:26N 42°32' E 010°25'816.2
2017-Sep-18 22:55N 42°36' E 010°15'1313.6
2017-Sep-18 22:00N 42°42' E 010°00'745.6 020 / 101013.1 5.4 16.114.516.1
2017-Sep-18 21:50N 42°49' E 010°02'617.2
2017-Sep-18 21:30N 42°55' E 010°04'918.4
2017-Sep-18 21:00N 43°04' E 010°04'5291.6
2017-Sep-18 21:00N 43°00' E 010°00'1224.3 020 / 101013.1 5.4 16.114.516.1
2017-Sep-18 20:30N 43°11' E 009°56'1019.0
2017-Sep-18 20:00N 43°19' E 009°48'4259.7
2017-Sep-18 20:00N 43°18' E 009°42'917.9 020 / 101013.1 5.4 16.114.516.1
2017-Sep-18 19:30N 43°27' E 009°40'918.6
2017-Sep-18 19:00N 43°35' E 009°34'918.3
2017-Sep-18 18:30N 43°43' E 009°28'917.8
2017-Sep-18 18:00N 43°50' E 009°22'917.5
2017-Sep-18 17:30N 43°58' E 009°15'917.6
2017-Sep-18 17:00N 44°06' E 009°09'917.7
2017-Sep-18 16:30N 44°13' E 009°03'816.9
2017-Sep-18 16:00N 44°21' E 008°58'4 8.7
2017-Sep-18 15:30N 44°25' E 008°55'0 0.0
2017-Sep-18 15:00N 44°25' E 008°55'0 0.0
2017-Sep-18 14:30N 44°25' E 008°55'0 0.0
2017-Sep-18 14:00N 44°25' E 008°55'0 0.0
2017-Sep-18 13:30N 44°25' E 008°55'0 0.0
2017-Sep-18 13:00N 44°25' E 008°55'0 0.0
2017-Sep-18 12:24N 44°25' E 008°55'0 0.0
2017-Sep-18 11:54N 44°25' E 008°55'0 0.0
2017-Sep-18 11:24N 44°25' E 008°55'0 0.0
2017-Sep-18 10:54N 44°25' E 008°55'0 0.0
2017-Sep-18 10:24N 44°25' E 008°55'0 0.0
2017-Sep-18 09:42N 44°25' E 008°55'0 0.0
2017-Sep-18 09:24N 44°25' E 008°55'0 0.0
2017-Sep-18 08:54N 44°25' E 008°55'0 0.0
2017-Sep-18 08:30N 44°25' E 008°55'0 0.0
2017-Sep-18 07:54N 44°25' E 008°55'0 0.0
2017-Sep-18 07:30N 44°25' E 008°55'0 0.0
2017-Sep-18 07:00N 44°25' E 008°55'0 0.0
2017-Sep-18 06:30N 44°25' E 008°55'0 0.0
2017-Sep-18 06:00N 44°25' E 008°55'0 0.6
2017-Sep-18 05:30N 44°24' E 008°55'3 5.2
2017-Sep-18 05:00N 44°22' E 008°58'3 6.9
2017-Sep-18 04:30N 44°19' E 008°59'4 8.8
2017-Sep-18 04:00N 44°15' E 008°56'4 8.3
2017-Sep-18 03:30N 44°11' E 008°54'4 8.2
2017-Sep-18 03:00N 44°08' E 008°52'4 8.1
2017-Sep-18 02:30N 44°04' E 008°49'4 8.1
2017-Sep-18 02:00N 44°00' E 008°47'3 5.8
2017-Sep-18 01:30N 44°01' E 008°51'4 8.0
2017-Sep-18 01:00N 44°04' E 008°54'4 7.9
2017-Sep-18 00:30N 44°07' E 008°58'4 7.9
2017-Sep-18 00:00N 44°10' E 009°02'4 7.6
2017-Sep-17 23:30N 44°12' E 009°06'4 8.0
2017-Sep-17 23:00N 44°10' E 009°11'4 7.9
2017-Sep-17 22:30N 44°08' E 009°16'4 8.0
2017-Sep-17 22:00N 44°06' E 009°20'4 8.3
2017-Sep-17 21:30N 44°04' E 009°25'4 7.7
2017-Sep-17 21:00N 44°00' E 009°27'2162.0
2017-Sep-17 21:00N 44°00' E 009°24'4 7.9 200 / 401014.1 5.4 19.114.317.1
2017-Sep-17 20:30N 43°56' E 009°26'4 7.5
2017-Sep-17 20:00N 43°53' E 009°24'5393.5
2017-Sep-17 20:00N 43°48' E 009°24'3 5.4 200 / 401014.1 5.4 19.114.317.1
2017-Sep-17 19:30N 43°49' E 009°27'4 8.7
2017-Sep-17 19:00N 43°48' E 009°33'5 9.7
2017-Sep-17 18:30N 43°51' E 009°38'5 9.8
2017-Sep-17 18:00N 43°54' E 009°43'5 9.9
2017-Sep-17 17:30N 43°58' E 009°48'510.1
2017-Sep-17 17:00N 44°02' E 009°52'5 9.7
2017-Sep-17 16:30N 44°06' E 009°50'0 0.4
2017-Sep-17 15:57N 44°06' E 009°50'0 0.0
2017-Sep-17 15:27N 44°06' E 009°50'0 0.0
2017-Sep-17 14:57N 44°06' E 009°50'0 0.0
2017-Sep-17 14:27N 44°06' E 009°50'0 0.0
2017-Sep-17 13:57N 44°06' E 009°50'0 0.0
2017-Sep-17 13:27N 44°06' E 009°50'0 0.0
2017-Sep-17 12:57N 44°06' E 009°50'0 0.0
2017-Sep-17 12:21N 44°06' E 009°50'0 0.0
2017-Sep-17 11:57N 44°06' E 009°50'0 0.0
2017-Sep-17 11:27N 44°06' E 009°50'0 0.0
2017-Sep-17 10:57N 44°06' E 009°50'0 0.0
2017-Sep-17 10:27N 44°06' E 009°50'0 0.0
2017-Sep-17 09:57N 44°06' E 009°50'0 0.0
2017-Sep-17 09:27N 44°06' E 009°50'0 0.0
2017-Sep-17 08:51N 44°06' E 009°50'0 0.0
2017-Sep-17 08:27N 44°06' E 009°50'0 0.0
2017-Sep-17 07:57N 44°06' E 009°50'0 0.0
2017-Sep-17 07:27N 44°06' E 009°50'0 0.0
2017-Sep-17 06:57N 44°06' E 009°50'0 0.0
2017-Sep-17 06:27N 44°06' E 009°50'0 0.0
2017-Sep-17 05:51N 44°06' E 009°50'0 0.0
2017-Sep-17 05:30N 44°06' E 009°50'1 2.6
2017-Sep-17 05:00N 44°05' E 009°50'510.3
2017-Sep-17 04:30N 44°01' E 009°55'5 9.9
2017-Sep-17 04:00N 43°57' E 009°53'612.3
2017-Sep-17 03:30N 43°52' E 009°47'612.1
2017-Sep-17 03:00N 43°47' E 009°42'612.4
2017-Sep-17 02:30N 43°43' E 009°36'612.5
2017-Sep-17 02:00N 43°38' E 009°30'713.2
2017-Sep-17 01:30N 43°33' E 009°24'713.3
2017-Sep-17 01:00N 43°28' E 009°18'713.3
2017-Sep-17 00:30N 43°23' E 009°13'713.2
2017-Sep-17 00:00N 43°18' E 009°07'3718.6
2017-Sep-16 22:00N 42°48' E 008°36'1110.7 270 / 201012.1 5.4 19.114.317.1
2017-Sep-16 21:00N 42°42' E 008°24'1514.9 270 / 201012.1 5.4 19.114.317.1
2017-Sep-16 20:00N 42°30' E 008°12'3015.0 270 / 201012.1 5.4 19.114.317.1
2017-Sep-16 18:00N 42°00' E 008°12'1515.0 220 / 221011.1 5.4 19.114.317.1
2017-Sep-16 17:00N 41°48' E 008°24'1514.7 120 / 191010.1 5.4 19.114.317.1
2017-Sep-16 16:00N 41°54' E 008°42'85 4.7 150 / 141010.1 5.4 18.114.917.1
2017-Sep-15 22:00N 43°06' E 007°42'1918.5 120 / 101010.1 5.4 18.114.917.1
2017-Sep-15 21:00N 43°24' E 007°36'527.0 120 / 101010.1 5.4 18.114.917.1
2017-Sep-15 20:49N 43°29' E 007°35'616.8
2017-Sep-15 20:27N 43°34' E 007°32'10 0.6
2017-Sep-15 03:41N 43°25' E 007°28'314.0
2017-Sep-15 03:30N 43°23' E 007°25'714.2
2017-Sep-15 03:00N 43°18' E 007°19'714.2
2017-Sep-15 02:30N 43°13' E 007°12'814.2
2017-Sep-15 01:56N 43°07' E 007°04'4812.3
2017-Sep-14 22:01N 42°50' E 006°03'114.3
2017-Sep-14 21:55N 42°51' E 006°01'614.4
2017-Sep-14 21:29N 42°53' E 005°53'714.4
2017-Sep-14 21:00N 42°56' E 005°44'816.3
2017-Sep-14 20:30N 42°59' E 005°33'714.8
2017-Sep-14 20:00N 43°01' E 005°24'714.6
2017-Sep-14 19:30N 43°05' E 005°15'714.8
2017-Sep-14 19:01N 43°11' E 005°10'714.8
2017-Sep-14 18:30N 43°17' E 005°15'5 9.7
2017-Sep-14 18:00N 43°21' E 005°20'3293.2
2017-Sep-14 18:00N 43°18' E 005°18'3 5.3 270 / 151018.1 5.4 18.118.121.1
2017-Sep-14 17:25N 43°21' E 005°20'3 7.1
2017-Sep-14 17:00N 43°18' E 005°18'341.4 270 / 151018.1 5.4 18.118.121.1
2017-Sep-14 16:55N 43°21' E 005°20'0 0.0
2017-Sep-14 16:19N 43°21' E 005°20'3 9.3
2017-Sep-14 16:00N 43°18' E 005°18'341.2 270 / 151018.1 5.4 18.118.121.1
2017-Sep-14 15:55N 43°21' E 005°20'0 0.0
2017-Sep-14 15:25N 43°21' E 005°20'0 0.0
2017-Sep-14 14:55N 43°21' E 005°20'0 0.0
2017-Sep-14 14:25N 43°21' E 005°20'0 0.0
2017-Sep-14 13:55N 43°21' E 005°20'0 0.0
2017-Sep-14 13:19N 43°21' E 005°20'0 0.0
2017-Sep-14 12:55N 43°21' E 005°20'0 0.0
2017-Sep-14 12:19N 43°21' E 005°20'0 0.0
2017-Sep-14 11:49N 43°21' E 005°20'0 0.0
2017-Sep-14 11:25N 43°21' E 005°20'0 0.0
2017-Sep-14 10:49N 43°21' E 005°20'0 0.0
2017-Sep-14 10:25N 43°21' E 005°20'0 0.0
2017-Sep-14 09:31N 43°21' E 005°20'0 0.0
2017-Sep-14 09:25N 43°21' E 005°20'0 0.0
2017-Sep-14 08:55N 43°21' E 005°20'0 0.0
2017-Sep-14 08:13N 43°21' E 005°20'0 0.0
2017-Sep-14 07:55N 43°21' E 005°20'0 0.0
2017-Sep-14 07:25N 43°21' E 005°20'0 0.0
2017-Sep-14 06:55N 43°21' E 005°20'0 0.0
2017-Sep-14 06:25N 43°21' E 005°20'0 0.0
2017-Sep-14 05:55N 43°21' E 005°20'0 0.3
2017-Sep-14 05:30N 43°21' E 005°20'3 6.7
2017-Sep-14 05:00N 43°19' E 005°16'611.6
2017-Sep-14 04:30N 43°15' E 005°10'611.3
2017-Sep-14 04:00N 43°10' E 005°08'611.9
2017-Sep-14 03:30N 43°06' E 005°03'611.8
2017-Sep-14 03:00N 43°01' E 004°57'611.7
2017-Sep-14 02:30N 42°57' E 004°52'612.0
2017-Sep-14 01:59N 42°53' E 004°45'612.3
2017-Sep-14 01:29N 42°49' E 004°39'612.0
2017-Sep-14 01:00N 42°45' E 004°34'612.4
2017-Sep-14 00:30N 42°40' E 004°28'612.4
2017-Sep-14 00:00N 42°36' E 004°22'612.2
2017-Sep-13 23:30N 42°32' E 004°16'612.1
2017-Sep-13 23:00N 42°27' E 004°10'612.1
2017-Sep-13 22:29N 42°23' E 004°04'918.0
2017-Sep-13 22:00N 42°18' E 003°54'1514.9 200 / 251019.1 5.4 20.117.021.1
2017-Sep-13 21:00N 42°06' E 003°42'318.1 200 / 251019.1 5.4 20.117.021.1
2017-Sep-13 20:49N 42°09' E 003°44'1012.5
2017-Sep-13 20:03N 42°02' E 003°35'112.5
2017-Sep-13 20:00N 42°01' E 003°35'81117.2
2017-Sep-13 20:00N 42°00' E 003°24'5 9.1 200 / 251019.1 5.4 20.117.021.1
2017-Sep-13 19:29N 41°57' E 003°28'713.8
2017-Sep-13 18:59N 41°52' E 003°22'613.2
2017-Sep-13 18:30N 41°49' E 003°13'28 1.7
2017-Sep-13 02:10N 41°24' E 002°56'2 8.8
2017-Sep-13 01:58N 41°23' E 002°54'6 8.3
2017-Sep-13 01:18N 41°20' E 002°48'2 8.0
2017-Sep-13 01:00N 41°19' E 002°45'4 7.9
2017-Sep-13 00:30N 41°17' E 002°41'4 7.7
2017-Sep-12 23:59N 41°16' E 002°36'4 7.9
2017-Sep-12 23:30N 41°16' E 002°31'4 7.9
2017-Sep-12 23:00N 41°16' E 002°26'4 7.8
2017-Sep-12 22:30N 41°16' E 002°20'5 8.2
2017-Sep-12 21:57N 41°15' E 002°14'4 8.7
2017-Sep-12 21:29N 41°18' E 002°10'4 1.2
2017-Sep-12 18:19N 41°22' E 002°11'  

Dump ship's entire track history